Time;durP1;ratioP1;P1;durP2;ratioP2;P2;SDS_P1;SDS_P2;PMS_P1;PMS_P2;Temp;Humidity;BMP_temperature;BMP_pressure;BME280_temperature;BME280_humidity;BME280_pressure;Samples;Min_cycle;Max_cycle;Signal;HPM_P1;HPM_P2
2023/08/25 00:01:55;;;;;;;5.70;5.27;;;29.00;56.10;;;;;;5016932;28;20452;-82
2023/08/25 00:04:23;;;;;;;6.03;4.83;;;29.00;56.10;;;;;;5015432;28;20408;-83
2023/08/25 00:06:51;;;;;;;5.60;5.10;;;29.00;56.00;;;;;;5014923;28;20404;-82
2023/08/25 00:09:19;;;;;;;5.73;5.13;;;29.00;56.10;;;;;;5016200;28;20420;-82
2023/08/25 00:11:48;;;;;;;6.77;5.70;;;28.90;56.20;;;;;;5015942;28;20428;-82
2023/08/25 00:14:16;;;;;;;6.07;5.10;;;29.00;56.30;;;;;;5017560;28;20411;-81
2023/08/25 00:16:44;;;;;;;8.03;5.00;;;28.90;56.20;;;;;;5018590;28;20404;-83
2023/08/25 00:19:17;;;;;;;6.03;5.43;;;28.90;56.00;;;;;;5017046;28;20424;-82
2023/08/25 00:21:44;;;;;;;6.07;5.57;;;28.90;56.00;;;;;;5009376;28;20408;-82
2023/08/25 00:24:12;;;;;;;5.53;5.03;;;28.90;56.10;;;;;;5015063;28;20443;-82
2023/08/25 00:26:40;;;;;;;6.60;5.23;;;28.90;56.20;;;;;;5009901;28;20408;-83
2023/08/25 00:29:08;;;;;;;5.37;4.97;;;28.90;56.20;;;;;;5003224;28;20416;-83
2023/08/25 00:31:36;;;;;;;4.73;4.33;;;28.90;56.10;;;;;;5003379;28;20412;-83
2023/08/25 00:34:04;;;;;;;7.00;5.60;;;28.90;56.20;;;;;;5003554;28;20454;-83
2023/08/25 00:36:34;;;;;;;7.60;5.20;;;28.90;56.00;;;;;;5002522;28;20454;-83
2023/08/25 00:39:02;;;;;;;5.13;4.63;;;28.90;55.90;;;;;;5003145;28;20456;-83
2023/08/25 00:41:31;;;;;;;5.53;5.07;;;28.80;56.10;;;;;;5002369;28;20479;-83
2023/08/25 00:43:59;;;;;;;6.13;4.73;;;28.80;55.90;;;;;;5002539;28;20510;-82
2023/08/25 00:46:27;;;;;;;6.13;4.90;;;28.80;56.00;;;;;;5002779;28;20492;-82
2023/08/25 00:48:55;;;;;;;5.13;4.57;;;28.80;56.10;;;;;;5002469;28;20447;-83
2023/08/25 00:51:23;;;;;;;5.00;4.60;;;28.80;56.00;;;;;;5002296;28;20452;-83
2023/08/25 00:53:52;;;;;;;4.83;4.50;;;28.80;56.20;;;;;;5010866;28;20457;-83
2023/08/25 00:56:20;;;;;;;4.83;4.43;;;28.80;56.00;;;;;;5012199;28;20458;-82
2023/08/25 00:58:48;;;;;;;4.90;4.47;;;28.70;56.00;;;;;;5012409;28;20440;-82
2023/08/25 01:01:17;;;;;;;4.70;4.30;;;28.70;55.90;;;;;;5003780;28;20469;-83
2023/08/25 01:03:44;;;;;;;4.93;4.53;;;28.70;56.10;;;;;;5002333;28;20436;-82
2023/08/25 01:06:12;;;;;;;4.47;4.17;;;28.70;55.90;;;;;;5001903;28;20456;-83
2023/08/25 01:08:40;;;;;;;5.50;5.00;;;28.70;55.80;;;;;;5001902;28;20529;-83
2023/08/25 01:11:21;;;;;;;5.07;4.67;;;28.70;55.90;;;;;;5002601;28;20408;-83
2023/08/25 01:13:51;;;;;;;4.90;4.60;;;28.70;56.00;;;;;;5002596;28;20464;-83
2023/08/25 01:16:22;;;;;;;6.20;4.87;;;28.70;56.00;;;;;;5002346;28;20468;-83
2023/08/25 01:18:50;;;;;;;4.97;4.57;;;28.60;55.90;;;;;;4994772;28;20444;-83
2023/08/25 01:21:18;;;;;;;5.03;4.63;;;28.60;55.80;;;;;;5001687;28;20822;-82
2023/08/25 01:23:47;;;;;;;4.97;4.57;;;28.60;56.10;;;;;;5001953;28;20436;-82
2023/08/25 01:26:17;;;;;;;4.23;3.93;;;28.60;55.90;;;;;;5001897;28;20500;-83
2023/08/25 01:28:45;;;;;;;5.10;4.70;;;28.60;55.90;;;;;;5001774;28;20485;-83
2023/08/25 01:31:13;;;;;;;5.20;4.73;;;28.60;56.00;;;;;;5001374;28;20408;-82
2023/08/25 01:33:45;;;;;;;5.33;4.83;;;28.60;56.00;;;;;;5002379;28;20491;-83
2023/08/25 01:36:16;;;;;;;6.10;4.37;;;28.60;55.90;;;;;;5001913;28;20448;-83
2023/08/25 01:38:46;;;;;;;4.50;4.10;;;28.60;56.00;;;;;;5001564;28;20412;-83
2023/08/25 01:41:17;;;;;;;8.80;6.60;;;28.60;56.00;;;;;;5001544;28;20444;-83
2023/08/25 01:43:47;;;;;;;11.47;9.87;;;28.50;55.80;;;;;;5000890;28;20494;-83
2023/08/25 01:46:16;;;;;;;11.37;9.23;;;28.50;55.90;;;;;;5001158;28;20461;-82
2023/08/25 01:48:45;;;;;;;13.33;11.70;;;28.50;55.70;;;;;;5001257;28;20445;-83
2023/08/25 01:51:13;;;;;;;11.90;10.67;;;28.50;55.70;;;;;;5001001;28;20412;-82
2023/08/25 01:57:50;;;;;;;13.20;11.17;;;28.50;55.70;;;;;;4941644;29;20423;-82
2023/08/25 02:00:19;;;;;;;19.40;16.40;;;28.40;55.80;;;;;;4960652;29;20441;-83
2023/08/25 02:02:47;;;;;;;14.57;12.87;;;28.40;55.80;;;;;;4949477;28;20426;-82
2023/08/25 02:05:15;;;;;;;16.93;13.70;;;28.40;55.60;;;;;;4947546;29;20470;-82
2023/08/25 02:07:44;;;;;;;24.07;15.30;;;28.40;55.80;;;;;;4956519;29;20442;-82
2023/08/25 02:10:12;;;;;;;21.43;15.90;;;28.40;55.70;;;;;;4952827;29;20438;-83
2023/08/25 02:12:40;;;;;;;17.67;15.37;;;28.40;55.70;;;;;;4940017;29;20449;-83
2023/08/25 02:15:10;;;;;;;22.77;15.47;;;28.40;55.60;;;;;;4939745;29;20514;-83
2023/08/25 02:17:40;;;;;;;18.50;15.70;;;28.30;55.40;;;;;;4951200;28;20404;-82
2023/08/25 02:20:10;;;;;;;19.80;15.90;;;28.30;55.70;;;;;;5000617;28;20461;-83
2023/08/25 02:22:38;;;;;;;17.30;15.07;;;28.40;55.70;;;;;;5000089;28;20459;-82
2023/08/25 02:25:06;;;;;;;21.90;17.30;;;28.30;55.60;;;;;;5000008;28;20476;-82
2023/08/25 02:27:34;;;;;;;20.00;17.17;;;28.30;55.60;;;;;;4999623;28;20420;-82
2023/08/25 02:30:03;;;;;;;19.37;16.60;;;28.30;55.60;;;;;;4999919;28;20444;-82
2023/08/25 02:32:32;;;;;;;20.17;16.30;;;28.30;55.50;;;;;;5000487;28;20436;-82
2023/08/25 02:34:59;;;;;;;20.47;16.97;;;28.30;55.60;;;;;;4999300;28;20469;-82
2023/08/25 02:37:27;;;;;;;19.80;16.57;;;28.30;55.60;;;;;;4999741;28;20420;-82
2023/08/25 02:39:56;;;;;;;19.10;15.90;;;28.30;55.60;;;;;;4999508;28;20445;-82
2023/08/25 02:42:24;;;;;;;20.60;16.30;;;28.30;55.70;;;;;;4999318;28;20540;-82
2023/08/25 02:44:52;;;;;;;19.97;16.20;;;28.30;55.60;;;;;;5000017;28;20470;-82
2023/08/25 02:47:20;;;;;;;19.63;16.27;;;28.30;55.60;;;;;;4999703;28;20456;-82
2023/08/25 02:49:49;;;;;;;17.23;15.40;;;28.30;55.50;;;;;;4999463;28;20472;-82
2023/08/25 02:52:17;;;;;;;21.07;16.33;;;28.30;55.40;;;;;;5000426;28;20491;-82
2023/08/25 02:54:45;;;;;;;19.97;16.43;;;28.20;55.50;;;;;;4999190;28;20436;-82
2023/08/25 02:57:13;;;;;;;18.27;15.20;;;28.30;55.40;;;;;;4999234;28;20411;-82
2023/08/25 02:59:41;;;;;;;17.87;15.73;;;28.30;55.50;;;;;;4999045;28;20465;-83
2023/08/25 03:02:09;;;;;;;18.80;15.83;;;28.20;55.40;;;;;;4999291;28;20444;-81
2023/08/25 03:04:37;;;;;;;17.70;15.33;;;28.20;55.30;;;;;;4999770;28;20462;-82
2023/08/25 03:07:06;;;;;;;16.83;15.10;;;28.20;55.30;;;;;;4999581;28;20443;-82
2023/08/25 03:09:34;;;;;;;17.73;14.67;;;28.20;55.20;;;;;;5004500;28;20476;-83
2023/08/25 03:12:02;;;;;;;20.20;15.03;;;28.20;55.50;;;;;;5006927;28;20408;-83
2023/08/25 03:14:30;;;;;;;16.53;14.67;;;28.20;55.30;;;;;;5005804;28;20470;-82
2023/08/25 03:16:57;;;;;;;17.67;14.70;;;28.20;55.30;;;;;;5004196;28;20447;-82
2023/08/25 03:19:25;;;;;;;16.90;15.03;;;28.20;55.20;;;;;;5004573;28;20423;-82
2023/08/25 03:21:53;;;;;;;16.63;14.87;;;28.20;55.10;;;;;;5002985;28;20485;-82
2023/08/25 03:24:23;;;;;;;16.33;14.47;;;28.20;55.30;;;;;;5002856;28;20446;-82
2023/08/25 03:26:51;;;;;;;17.37;14.57;;;28.10;55.20;;;;;;5003822;28;20868;-82
2023/08/25 03:29:19;;;;;;;17.37;13.83;;;28.20;55.00;;;;;;5003943;28;20465;-82
2023/08/25 03:31:47;;;;;;;18.60;15.07;;;28.20;55.30;;;;;;5003532;28;20465;-82
2023/08/25 03:34:15;;;;;;;17.90;14.40;;;28.10;55.00;;;;;;5002963;28;20516;-82
2023/08/25 03:36:42;;;;;;;16.90;14.53;;;28.10;55.10;;;;;;5002568;28;20448;-82
2023/08/25 03:39:10;;;;;;;16.30;14.60;;;28.10;55.00;;;;;;5003088;28;20423;-82
2023/08/25 03:41:40;;;;;;;16.27;14.03;;;28.20;54.90;;;;;;5002316;28;20539;-82
2023/08/25 03:44:08;;;;;;;14.50;12.93;;;28.20;55.10;;;;;;5003128;28;20907;-83
2023/08/25 03:46:36;;;;;;;15.03;13.40;;;28.10;54.80;;;;;;5001973;28;20450;-83
2023/08/25 03:49:04;;;;;;;15.90;13.80;;;28.10;55.00;;;;;;5006522;28;20420;-82
2023/08/25 03:51:32;;;;;;;19.47;14.10;;;28.10;54.90;;;;;;5015991;28;20477;-81
2023/08/25 03:54:00;;;;;;;15.60;13.73;;;28.10;54.90;;;;;;5006935;28;20501;-83
2023/08/25 03:56:28;;;;;;;14.63;13.03;;;28.10;54.90;;;;;;5011065;28;20469;-82
2023/08/25 03:58:57;;;;;;;16.33;14.37;;;28.10;54.80;;;;;;5004596;28;20426;-83
2023/08/25 04:01:25;;;;;;;15.30;13.33;;;28.10;54.90;;;;;;5003892;28;20437;-83
2023/08/25 04:03:53;;;;;;;15.30;12.70;;;28.10;54.90;;;;;;5004137;28;20454;-83
2023/08/25 04:06:21;;;;;;;14.60;12.43;;;28.10;54.90;;;;;;5004333;28;20515;-82
2023/08/25 04:08:49;;;;;;;16.33;13.30;;;28.10;54.90;;;;;;5003922;28;20441;-84
2023/08/25 04:11:17;;;;;;;16.50;13.20;;;28.00;54.90;;;;;;5004529;28;20474;-83
2023/08/25 04:13:44;;;;;;;16.17;13.50;;;28.00;54.90;;;;;;5004259;28;20443;-83
2023/08/25 04:16:13;;;;;;;15.60;12.57;;;28.00;55.00;;;;;;5004300;28;20460;-83
2023/08/25 04:18:41;;;;;;;13.40;11.33;;;28.00;54.90;;;;;;5003817;28;20424;-83
2023/08/25 04:21:10;;;;;;;13.77;12.23;;;28.00;55.00;;;;;;5004471;28;20523;-82
2023/08/25 04:23:38;;;;;;;13.77;12.27;;;28.00;55.00;;;;;;5004059;28;20499;-82
2023/08/25 04:26:06;;;;;;;16.03;12.80;;;28.00;55.00;;;;;;4994891;28;20506;-83
2023/08/25 04:28:34;;;;;;;14.17;12.60;;;28.00;55.00;;;;;;5003239;28;20415;-83
2023/08/25 04:31:03;;;;;;;15.63;11.70;;;28.00;54.80;;;;;;5003637;28;20474;-83
2023/08/25 04:33:32;;;;;;;12.73;11.43;;;28.00;54.60;;;;;;5003445;28;20447;-83
2023/08/25 04:36:00;;;;;;;14.97;11.60;;;27.90;55.00;;;;;;5003350;28;20440;-83
2023/08/25 04:38:28;;;;;;;13.83;11.50;;;27.90;54.80;;;;;;5004190;28;20460;-83
2023/08/25 04:40:56;;;;;;;12.30;11.07;;;27.90;55.00;;;;;;5011986;28;20440;-83
2023/08/25 04:43:24;;;;;;;12.50;11.20;;;27.90;54.90;;;;;;5003569;28;20448;-83
2023/08/25 04:45:52;;;;;;;14.87;11.50;;;27.90;54.80;;;;;;5002379;28;20461;-83
2023/08/25 04:48:22;;;;;;;13.33;11.43;;;27.90;54.80;;;;;;5003232;28;20416;-81
2023/08/25 04:50:51;;;;;;;13.07;11.63;;;27.90;55.40;;;;;;4998626;28;20961;-82
2023/08/25 04:53:19;;;;;;;13.60;11.27;;;27.90;54.80;;;;;;5003908;28;20443;-82
2023/08/25 04:55:47;;;;;;;11.70;10.50;;;27.90;54.70;;;;;;5002180;28;20518;-80
2023/08/25 04:58:15;;;;;;;14.80;11.10;;;27.90;54.80;;;;;;5003176;28;20437;-82
2023/08/25 05:00:43;;;;;;;13.43;11.30;;;27.80;54.60;;;;;;5003374;28;20441;-82
2023/08/25 05:03:11;;;;;;;11.87;10.53;;;27.80;54.80;;;;;;4994223;28;20473;-83
2023/08/25 05:05:39;;;;;;;12.20;10.93;;;27.80;54.80;;;;;;5003257;28;20436;-83
2023/08/25 05:08:08;;;;;;;11.87;10.63;;;27.90;54.90;;;;;;5002609;28;20437;-83
2023/08/25 05:10:36;;;;;;;11.90;10.70;;;27.80;54.50;;;;;;5001400;28;20449;-83
2023/08/25 05:13:04;;;;;;;11.13;10.03;;;27.80;54.70;;;;;;5002223;28;20442;-83
2023/08/25 05:15:33;;;;;;;11.50;10.33;;;27.90;54.50;;;;;;5002525;28;20507;-82
2023/08/25 05:18:01;;;;;;;12.00;10.30;;;27.80;54.60;;;;;;5002388;28;20441;-83
2023/08/25 05:20:29;;;;;;;10.93;9.93;;;27.80;54.70;;;;;;5004841;28;20438;-81
2023/08/25 05:22:57;;;;;;;11.50;10.20;;;27.90;54.60;;;;;;5011596;28;20843;-82
2023/08/25 05:25:26;;;;;;;12.10;10.23;;;27.90;54.60;;;;;;5010985;28;20455;-82
2023/08/25 05:27:53;;;;;;;11.33;10.13;;;27.90;54.50;;;;;;5006146;28;20487;-83
2023/08/25 05:30:22;;;;;;;10.60;9.50;;;27.90;54.60;;;;;;5001824;28;20409;-83
2023/08/25 05:32:50;;;;;;;11.73;10.33;;;27.90;54.50;;;;;;5002366;28;20444;-82
2023/08/25 05:35:18;;;;;;;9.47;8.57;;;27.90;54.40;;;;;;5002925;28;20432;-83
2023/08/25 05:37:46;;;;;;;12.13;9.30;;;28.00;54.50;;;;;;5002301;28;20451;-83
2023/08/25 05:40:14;;;;;;;10.80;9.70;;;27.90;54.30;;;;;;4995236;28;20481;-83
2023/08/25 05:42:43;;;;;;;10.20;9.10;;;28.00;54.60;;;;;;5002263;28;20930;-82
2023/08/25 05:45:11;;;;;;;11.37;9.00;;;28.00;54.30;;;;;;5001591;28;20463;-83
2023/08/25 05:47:39;;;;;;;10.83;9.70;;;28.00;54.40;;;;;;5000437;28;20448;-82
2023/08/25 05:50:07;;;;;;;10.17;9.17;;;28.00;54.40;;;;;;4999251;28;20416;-77
2023/08/25 05:52:36;;;;;;;10.37;9.27;;;28.10;54.40;;;;;;5000929;28;20411;-83
2023/08/25 05:55:04;;;;;;;10.40;9.30;;;28.10;54.10;;;;;;5000684;28;20447;-82
2023/08/25 05:57:32;;;;;;;10.23;8.90;;;28.10;54.20;;;;;;5002014;28;20462;-83
2023/08/25 06:00:01;;;;;;;10.37;8.30;;;28.10;54.10;;;;;;5001032;28;20480;-82
2023/08/25 06:02:29;;;;;;;11.47;9.37;;;28.10;54.20;;;;;;5001870;28;20434;-82
2023/08/25 06:04:57;;;;;;;9.67;8.33;;;28.10;54.00;;;;;;5001725;28;20469;-82
2023/08/25 06:07:25;;;;;;;9.70;8.73;;;28.10;54.10;;;;;;5001483;28;20455;-82
2023/08/25 06:09:53;;;;;;;9.77;8.77;;;28.10;54.20;;;;;;5001565;28;20453;-82
2023/08/25 06:12:21;;;;;;;9.70;8.50;;;28.10;54.00;;;;;;5001703;28;20448;-82
2023/08/25 06:14:52;;;;;;;9.30;8.40;;;28.10;54.20;;;;;;5000938;28;20443;-82
2023/08/25 06:17:21;;;;;;;8.87;8.07;;;28.20;54.20;;;;;;4994163;28;20548;-82
2023/08/25 06:19:49;;;;;;;9.87;8.87;;;28.20;54.00;;;;;;5001613;28;20500;-82
2023/08/25 06:22:17;;;;;;;9.47;8.20;;;28.20;53.80;;;;;;4991262;28;20459;-82
2023/08/25 06:24:45;;;;;;;9.13;8.20;;;28.30;53.60;;;;;;4998783;28;20564;-82
2023/08/25 06:27:13;;;;;;;8.67;7.87;;;28.30;53.90;;;;;;4999520;28;20459;-82
2023/08/25 06:29:42;;;;;;;9.40;8.43;;;28.30;54.00;;;;;;5001256;28;20436;-82
2023/08/25 06:32:10;;;;;;;9.20;8.30;;;28.30;53.80;;;;;;5001143;28;20443;-81
2023/08/25 06:34:39;;;;;;;8.57;7.77;;;28.30;53.80;;;;;;5001607;28;20463;-82
2023/08/25 06:37:07;;;;;;;8.60;7.80;;;28.40;53.80;;;;;;5001424;28;20447;-82
2023/08/25 06:39:35;;;;;;;9.47;8.57;;;28.50;53.70;;;;;;5000814;28;20448;-82
2023/08/25 06:42:05;;;;;;;9.00;8.17;;;28.40;53.60;;;;;;5001024;28;20412;-82
2023/08/25 06:44:33;;;;;;;8.37;7.67;;;28.40;53.50;;;;;;4998496;28;20481;-80
2023/08/25 06:47:01;;;;;;;8.60;7.70;;;28.50;53.60;;;;;;4996153;28;20520;-80
2023/08/25 06:49:30;;;;;;;7.80;7.10;;;28.50;53.40;;;;;;4996664;28;20476;-81
2023/08/25 06:51:59;;;;;;;8.20;7.50;;;28.60;53.50;;;;;;4982609;28;20491;-81
2023/08/25 06:54:27;;;;;;;7.57;6.87;;;28.70;53.30;;;;;;4992145;28;20449;-80
2023/08/25 06:56:55;;;;;;;8.30;7.50;;;28.70;53.00;;;;;;4997870;28;20495;-80
2023/08/25 06:59:23;;;;;;;7.33;6.63;;;28.70;52.70;;;;;;4995884;28;20510;-80
2023/08/25 07:01:51;;;;;;;7.93;7.13;;;28.80;53.10;;;;;;4998255;28;20475;-81
2023/08/25 07:04:19;;;;;;;7.53;6.93;;;28.80;52.60;;;;;;4997918;28;20469;-81
2023/08/25 07:06:48;;;;;;;7.70;7.00;;;28.80;53.00;;;;;;4996788;28;20479;-81
2023/08/25 07:09:17;;;;;;;7.43;6.83;;;28.80;52.80;;;;;;5002072;28;20437;-83
2023/08/25 07:11:46;;;;;;;8.10;7.40;;;28.80;52.90;;;;;;4998228;28;20495;-84
2023/08/25 07:14:13;;;;;;;7.77;7.07;;;28.80;53.00;;;;;;4997177;28;20491;-80
2023/08/25 07:16:42;;;;;;;7.20;6.60;;;28.80;52.90;;;;;;4993337;28;20920;-81
2023/08/25 07:19:10;;;;;;;8.53;7.33;;;28.90;53.00;;;;;;4993794;28;20429;-81
2023/08/25 07:21:40;;;;;;;7.20;6.50;;;28.90;52.90;;;;;;5008125;28;20420;-81
2023/08/25 07:24:09;;;;;;;7.97;6.63;;;28.90;52.80;;;;;;5009296;28;20474;-80
2023/08/25 07:26:38;;;;;;;7.37;6.57;;;29.00;53.00;;;;;;5011742;28;20419;-82
2023/08/25 07:29:06;;;;;;;7.57;6.97;;;29.10;52.70;;;;;;4992119;28;20428;-81
2023/08/25 07:31:34;;;;;;;7.87;7.10;;;29.20;52.80;;;;;;4998957;28;20447;-82
2023/08/25 07:34:02;;;;;;;7.57;6.97;;;29.30;52.70;;;;;;4983195;28;20434;-82
2023/08/25 07:36:29;;;;;;;6.87;6.27;;;29.40;52.40;;;;;;5003759;28;20455;-82
2023/08/25 07:38:57;;;;;;;6.73;6.23;;;29.60;52.50;;;;;;5003624;28;20413;-81
2023/08/25 07:41:25;;;;;;;7.37;6.77;;;29.70;52.00;;;;;;4999189;28;20427;-81
2023/08/25 07:43:54;;;;;;;7.43;6.83;;;29.70;52.00;;;;;;5001316;28;20531;-81
2023/08/25 07:46:22;;;;;;;9.20;6.40;;;29.80;52.10;;;;;;4993956;28;20560;-83
2023/08/25 07:48:50;;;;;;;6.93;6.30;;;29.80;52.00;;;;;;4991414;28;20510;-82
2023/08/25 07:51:18;;;;;;;7.00;6.30;;;29.80;52.20;;;;;;4995181;28;20404;-81
2023/08/25 07:54:06;;;;;;;7.30;6.70;;;29.80;52.30;;;;;;4999147;28;20399;-82
2023/08/25 07:56:34;;;;;;;7.33;6.67;;;29.80;52.30;;;;;;4998286;28;20420;-83
2023/08/25 07:59:05;;;;;;;6.53;6.00;;;29.90;52.40;;;;;;4998049;28;20423;-81
2023/08/25 08:01:34;;;;;;;6.87;6.37;;;30.00;52.10;;;;;;4989487;28;20471;-81
2023/08/25 08:04:03;;;;;;;7.50;6.83;;;30.00;52.30;;;;;;5000513;28;21008;-81
2023/08/25 08:06:34;;;;;;;6.87;6.30;;;30.00;52.30;;;;;;4997441;28;20512;-81
2023/08/25 08:09:03;;;;;;;7.43;6.67;;;30.00;52.30;;;;;;5006235;28;20512;-81
2023/08/25 08:11:30;;;;;;;6.37;5.87;;;30.00;52.40;;;;;;4992666;28;20444;-81
2023/08/25 08:13:58;;;;;;;6.80;6.20;;;30.00;52.40;;;;;;5007930;28;20415;-81
2023/08/25 08:16:28;;;;;;;6.57;6.07;;;30.00;52.50;;;;;;4999466;28;20504;-83
2023/08/25 08:18:56;;;;;;;6.63;6.13;;;30.00;52.50;;;;;;5001914;28;20468;-83
2023/08/25 08:21:23;;;;;;;7.07;6.43;;;30.00;52.60;;;;;;5000070;28;20499;-84
2023/08/25 08:23:51;;;;;;;48.73;32.83;;;30.00;52.60;;;;;;4993046;28;20491;-78
2023/08/25 08:26:19;;;;;;;29.93;19.57;;;29.90;54.40;;;;;;4994568;28;20523;-79
2023/08/25 08:28:47;;;;;;;27.33;19.70;;;29.60;57.40;;;;;;4994278;28;20473;-78
2023/08/25 08:31:18;;;;;;;32.70;22.60;;;29.40;58.40;;;;;;4985543;28;20425;-78
2023/08/25 08:33:47;;;;;;;34.23;22.70;;;29.20;58.80;;;;;;4990028;28;20456;-79
2023/08/25 08:36:16;;;;;;;30.17;23.00;;;29.00;59.60;;;;;;4994009;28;20461;-78
2023/08/25 08:38:43;;;;;;;40.70;30.10;;;29.00;60.40;;;;;;4993198;28;20416;-78
2023/08/25 08:41:11;;;;;;;42.17;29.10;;;28.80;61.00;;;;;;4989398;28;20425;-78
2023/08/25 08:43:42;;;;;;;28.07;22.20;;;28.60;62.80;;;;;;4989104;28;20444;-78
2023/08/25 08:46:11;;;;;;;30.47;21.03;;;28.60;62.50;;;;;;4987594;28;20459;-78
2023/08/25 08:48:38;;;;;;;26.93;19.90;;;28.70;62.60;;;;;;4990874;28;20416;-78
2023/08/25 08:51:08;;;;;;;33.77;22.47;;;29.00;62.20;;;;;;4985734;28;20501;-78
2023/08/25 08:53:36;;;;;;;32.30;22.87;;;28.90;61.70;;;;;;4986012;28;20756;-78
2023/08/25 08:56:04;;;;;;;30.20;21.60;;;28.90;62.40;;;;;;4989011;28;20523;-78
2023/08/25 08:58:32;;;;;;;30.47;21.97;;;29.00;62.40;;;;;;4987973;28;20436;-79
2023/08/25 09:01:00;;;;;;;37.43;23.13;;;29.20;61.40;;;;;;4988967;28;20419;-79
2023/08/25 09:03:33;;;;;;;39.80;23.67;;;28.70;61.90;;;;;;4992903;28;20860;-77
2023/08/25 09:06:03;;;;;;;29.90;21.00;;;28.00;62.40;;;;;;4995876;28;20564;-77
2023/08/25 09:08:32;;;;;;;30.40;21.40;;;28.20;64.40;;;;;;4994113;28;20424;-78
2023/08/25 09:11:02;;;;;;;32.70;23.47;;;28.40;63.90;;;;;;4993147;28;20453;-79
2023/08/25 09:13:33;;;;;;;39.10;26.43;;;28.20;64.30;;;;;;4999313;28;20416;-78
2023/08/25 09:16:01;;;;;;;29.63;22.00;;;28.20;64.30;;;;;;5000893;28;20455;-79
2023/08/25 09:18:35;;;;;;;28.57;20.50;;;28.30;64.00;;;;;;4997177;28;20437;-79
2023/08/25 09:21:04;;;;;;;30.50;22.00;;;28.50;63.50;;;;;;5002857;28;20425;-80
2023/08/25 09:23:33;;;;;;;31.47;20.37;;;28.70;63.10;;;;;;5008194;28;20437;-77
2023/08/25 09:26:04;;;;;;;27.37;20.10;;;28.60;62.30;;;;;;5003172;28;20480;-78
2023/08/25 09:28:37;;;;;;;32.37;20.67;;;28.40;63.40;;;;;;5008041;28;20436;-78
2023/08/25 09:31:05;;;;;;;36.70;21.53;;;28.20;63.10;;;;;;5003879;28;20417;-78
2023/08/25 09:33:34;;;;;;;31.67;20.53;;;27.90;65.60;;;;;;5008279;28;20441;-80
2023/08/25 09:36:05;;;;;;;48.10;32.70;;;27.60;66.30;;;;;;5006682;28;20453;-80
2023/08/25 09:38:35;;;;;;;34.00;22.80;;;27.70;68.10;;;;;;5015364;28;20433;-78
2023/08/25 09:41:23;;;;;;;37.80;25.00;;;27.40;68.60;;;;;;5011492;28;20431;-77
2023/08/25 09:43:52;;;;;;;37.53;23.63;;;26.90;71.20;;;;;;5014266;28;20433;-79
2023/08/25 09:46:26;;;;;;;38.33;24.17;;;26.50;73.40;;;;;;5005513;28;20447;-78
2023/08/25 09:48:55;;;;;;;41.77;26.63;;;26.50;74.10;;;;;;4993795;28;20452;-78
2023/08/25 09:51:23;;;;;;;36.07;24.70;;;26.00;76.60;;;;;;4990654;28;20492;-77
2023/08/25 09:53:52;;;;;;;37.77;25.20;;;25.90;78.40;;;;;;4995418;28;20442;-78
2023/08/25 09:56:20;;;;;;;37.23;25.50;;;25.90;79.00;;;;;;4994962;28;20419;-78
2023/08/25 09:58:48;;;;;;;40.87;27.20;;;26.00;79.20;;;;;;4993111;28;20492;-79
2023/08/25 10:01:16;;;;;;;35.07;23.70;;;26.20;79.30;;;;;;4993937;28;21031;-80
2023/08/25 10:03:44;;;;;;;38.43;25.57;;;26.40;79.40;;;;;;4998490;28;20424;-79
2023/08/25 10:06:12;;;;;;;42.20;26.20;;;26.00;79.70;;;;;;4991426;28;20479;-78
2023/08/25 10:08:41;;;;;;;42.00;26.60;;;25.60;83.20;;;;;;4983692;28;20476;-78
2023/08/25 10:11:12;;;;;;;45.73;27.30;;;25.50;83.70;;;;;;5001408;28;20931;-80
2023/08/25 10:13:40;;;;;;;39.70;25.20;;;25.20;85.70;;;;;;4990210;28;20425;-79
2023/08/25 10:16:08;;;;;;;44.27;26.17;;;25.00;88.70;;;;;;4999393;28;20523;-78
2023/08/25 10:18:39;;;;;;;39.77;24.63;;;24.60;92.00;;;;;;4992212;28;20482;-77
2023/08/25 10:21:08;;;;;;;43.40;27.90;;;24.30;93.40;;;;;;4991799;28;20488;-80
2023/08/25 10:23:36;;;;;;;41.97;25.43;;;24.10;95.70;;;;;;4987261;28;20490;-80
2023/08/25 10:26:04;;;;;;;35.27;23.67;;;24.20;97.10;;;;;;4992594;28;20567;-80
2023/08/25 10:28:33;;;;;;;32.77;23.07;;;24.60;97.50;;;;;;4991515;28;20903;-79
2023/08/25 10:31:01;;;;;;;38.67;25.97;;;25.10;95.60;;;;;;4992350;28;20439;-79
2023/08/25 10:33:40;;;;;;;44.73;25.00;;;25.10;95.10;;;;;;4990643;28;20445;-79
2023/08/25 10:36:08;;;;;;;40.23;24.40;;;25.30;94.00;;;;;;4993515;28;20926;-77
2023/08/25 10:38:36;;;;;;;35.23;22.40;;;25.50;93.30;;;;;;4991474;28;20441;-79
2023/08/25 10:41:18;;;;;;;34.93;21.60;;;25.70;92.90;;;;;;4987376;28;20582;-79
2023/08/25 10:43:50;;;;;;;30.23;20.03;;;25.70;92.50;;;;;;4988714;28;20457;-80
2023/08/25 10:46:18;;;;;;;26.63;19.10;;;25.80;92.50;;;;;;4990776;28;20508;-79
2023/08/25 10:48:48;;;;;;;36.10;19.50;;;25.90;91.60;;;;;;4987716;28;20433;-79
2023/08/25 10:51:17;;;;;;;28.27;20.13;;;25.80;91.50;;;;;;4991279;28;20491;-79
2023/08/25 10:53:46;;;;;;;47.97;30.70;;;25.70;91.60;;;;;;4986515;28;20423;-78
2023/08/25 10:56:22;;;;;;;35.23;20.20;;;25.90;92.50;;;;;;4995691;28;21035;-79
2023/08/25 10:58:58;;;;;;;33.20;18.83;;;25.80;92.00;;;;;;4989244;28;20447;-78
2023/08/25 11:01:28;;;;;;;27.00;19.13;;;25.80;92.10;;;;;;4990946;28;20419;-79
2023/08/25 11:04:04;;;;;;;33.57;20.13;;;25.80;91.50;;;;;;4992760;28;20951;-78
2023/08/25 11:06:40;;;;;;;29.67;19.53;;;25.80;92.30;;;;;;4988377;28;20506;-79
2023/08/25 11:09:09;;;;;;;31.27;20.70;;;25.90;92.50;;;;;;4987579;28;20595;-80
2023/08/25 11:11:39;;;;;;;16.00;11.20;;;25.70;93.40;;;;;;4990741;28;20948;-79
2023/08/25 11:14:09;;;;;;;13.60;9.57;;;26.50;94.90;;;;;;4980754;28;20450;-77
2023/08/25 11:16:39;;;;;;;9.10;7.60;;;27.20;92.10;;;;;;4990518;28;20429;-79
2023/08/25 11:19:09;;;;;;;11.53;8.43;;;27.70;88.80;;;;;;4987771;28;20427;-80
2023/08/25 11:21:37;;;;;;;12.53;7.37;;;28.10;84.70;;;;;;4990279;28;20512;-79
2023/08/25 11:24:05;;;;;;;9.77;6.90;;;28.50;81.90;;;;;;4988786;28;20508;-80
2023/08/25 11:26:34;;;;;;;9.63;6.90;;;28.70;79.70;;;;;;4984342;28;20562;-79
2023/08/25 11:29:02;;;;;;;8.33;7.10;;;28.90;77.70;;;;;;4989148;28;20483;-79
2023/08/25 11:31:31;;;;;;;8.07;6.80;;;29.00;76.70;;;;;;4989079;28;20430;-79
2023/08/25 11:33:59;;;;;;;8.07;6.20;;;29.10;75.60;;;;;;4994529;28;20419;-78
2023/08/25 11:36:27;;;;;;;9.63;6.90;;;29.20;74.80;;;;;;4994286;28;20457;-80
2023/08/25 11:38:55;;;;;;;6.77;6.07;;;29.30;74.10;;;;;;4994271;28;20524;-80
2023/08/25 11:41:23;;;;;;;7.83;6.43;;;29.30;73.40;;;;;;4993066;28;20447;-78
2023/08/25 11:43:52;;;;;;;8.70;6.53;;;29.50;72.90;;;;;;4989111;28;20477;-79
2023/08/25 11:46:20;;;;;;;12.03;6.20;;;29.50;72.40;;;;;;4994702;28;20481;-78
2023/08/25 11:48:51;;;;;;;10.00;6.17;;;29.50;72.00;;;;;;5000537;28;20493;-82
2023/08/25 11:51:19;;;;;;;13.80;5.63;;;29.50;71.70;;;;;;4996233;28;20430;-80
2023/08/25 11:53:48;;;;;;;7.90;6.20;;;29.60;71.50;;;;;;4996409;28;20507;-81
2023/08/25 11:56:17;;;;;;;7.73;5.93;;;29.60;71.20;;;;;;4998855;28;20454;-81
2023/08/25 11:58:47;;;;;;;6.57;5.70;;;29.70;70.80;;;;;;5003046;28;20446;-80
2023/08/25 12:01:15;;;;;;;7.27;5.90;;;29.70;70.50;;;;;;4988950;28;20453;-80
2023/08/25 12:03:44;;;;;;;8.60;5.70;;;29.70;70.10;;;;;;4997235;28;20460;-80
2023/08/25 12:06:15;;;;;;;6.50;5.67;;;29.80;69.80;;;;;;5001141;28;20450;-80
2023/08/25 12:08:43;;;;;;;7.33;5.70;;;29.80;69.60;;;;;;4998319;28;20460;-80
2023/08/25 12:11:12;;;;;;;6.33;5.73;;;29.90;69.30;;;;;;4997126;28;20422;-80
2023/08/25 12:13:43;;;;;;;6.03;5.50;;;29.90;69.00;;;;;;4996505;28;20857;-82
2023/08/25 12:16:13;;;;;;;6.90;5.33;;;29.90;68.70;;;;;;4998638;28;20469;-83
2023/08/25 12:18:45;;;;;;;5.63;4.93;;;29.90;68.70;;;;;;4996329;28;20807;-79
2023/08/25 12:21:17;;;;;;;5.10;4.70;;;30.00;68.30;;;;;;4998426;28;20923;-80
2023/08/25 12:23:46;;;;;;;5.57;5.13;;;30.00;68.20;;;;;;4999956;28;20511;-81
2023/08/25 12:26:15;;;;;;;6.30;5.70;;;30.10;68.00;;;;;;5003289;28;20455;-82
2023/08/25 12:28:44;;;;;;;5.77;5.30;;;30.10;67.60;;;;;;4997749;28;20445;-81
2023/08/25 12:31:13;;;;;;;6.93;5.30;;;30.10;67.50;;;;;;4999547;28;20480;-80
2023/08/25 12:33:41;;;;;;;6.00;5.40;;;30.20;67.20;;;;;;5002573;28;20522;-80
2023/08/25 12:36:10;;;;;;;8.17;5.03;;;30.20;67.20;;;;;;4995666;28;20492;-80
2023/08/25 12:38:40;;;;;;;5.67;5.13;;;30.20;67.00;;;;;;4996649;28;20529;-81
2023/08/25 12:48:44;;;;;;;5.27;4.87;;;30.20;66.80;;;;;;4994787;28;20394;-79
2023/08/25 12:51:12;;;;;;;6.67;5.67;;;30.20;66.90;;;;;;5001391;28;20462;-80
2023/08/25 13:05:30;;;;;;;8.23;4.80;;;30.10;67.20;;;;;;4990861;28;20550;-78
2023/08/25 13:07:58;;;;;;;5.70;5.20;;;30.00;67.40;;;;;;4993495;28;20477;-79